createdAt,value
2018-08-28T00:02:20.289Z,100120.16
2018-08-28T00:04:47.895Z,100119.02
2018-08-28T00:07:15.510Z,100121.05
2018-08-28T00:09:43.427Z,100121.77
2018-08-28T00:12:12.678Z,100120.25
2018-08-28T00:14:40.286Z,100120.45
2018-08-28T00:17:08.997Z,100127.23
2018-08-28T00:19:37.039Z,100124.08
2018-08-28T00:22:04.666Z,100122.28
2018-08-28T00:24:32.287Z,100119.61
2018-08-28T00:26:59.895Z,100116.64
2018-08-28T00:29:27.528Z,100121.36
2018-08-28T00:31:57.529Z,100119.35
2018-08-28T00:34:25.124Z,100120.06
2018-08-28T00:36:53.074Z,100119.41
2018-08-28T00:39:20.719Z,100125.47
2018-08-28T00:41:49.338Z,100120.77
2018-08-28T00:44:17.622Z,100129.20
2018-08-28T00:46:45.551Z,100129.55
2018-08-28T00:49:13.701Z,100130.89
2018-08-28T00:51:41.390Z,100129.89
2018-08-28T00:54:10.094Z,100132.58
2018-08-28T00:56:39.105Z,100134.95
2018-08-28T00:59:06.760Z,100142.86
2018-08-28T01:01:34.398Z,100138.20
2018-08-28T01:04:02.009Z,100142.58
2018-08-28T01:06:29.887Z,100147.67
2018-08-28T01:08:57.509Z,100142.48
2018-08-28T01:11:25.152Z,100143.17
2018-08-28T01:13:53.038Z,100142.51
2018-08-28T01:16:20.650Z,100149.91
2018-08-28T01:18:48.270Z,100146.73
2018-08-28T01:21:15.900Z,100148.77
2018-08-28T01:23:43.765Z,100153.14
2018-08-28T01:26:11.395Z,100152.99
2018-08-28T01:33:57.647Z,100145.31
2018-08-28T01:44:20.648Z,100146.32
2018-08-28T01:46:48.358Z,100143.11
2018-08-28T01:49:16.536Z,100144.45
2018-08-28T01:51:44.499Z,100149.16
2018-08-28T01:54:12.146Z,100147.95
2018-08-28T01:56:39.914Z,100149.30
2018-08-28T01:59:07.516Z,100149.64
2018-08-28T02:01:35.517Z,100148.30
2018-08-28T02:04:03.299Z,100147.66
2018-08-28T02:06:30.918Z,100148.00
2018-08-28T02:08:58.515Z,100142.63
2018-08-28T02:11:26.607Z,100147.83
2018-08-28T02:13:54.230Z,100141.63
2018-08-28T02:16:21.816Z,100150.03
2018-08-28T02:18:49.419Z,100147.69
2018-08-28T02:21:17.419Z,100150.71
2018-08-28T02:23:45.036Z,100149.22
2018-08-28T02:26:12.645Z,100146.02
2018-08-28T02:28:40.337Z,100146.39
2018-08-28T02:31:08.243Z,100152.59
2018-08-28T02:33:35.967Z,100156.14
2018-08-28T02:36:03.563Z,100146.73
2018-08-28T02:38:31.472Z,100149.61
2018-08-28T02:40:59.099Z,100152.78
2018-08-28T02:43:26.717Z,100152.45
2018-08-28T02:45:54.314Z,100154.12
2018-08-28T02:48:22.258Z,100142.69
2018-08-28T02:50:50.107Z,100149.75
2018-08-28T02:53:17.734Z,100145.53
2018-08-28T02:55:45.343Z,100149.70
2018-08-28T02:58:13.227Z,100154.26
2018-08-28T03:00:40.888Z,100157.23
2018-08-28T03:03:08.550Z,100158.09
2018-08-28T03:05:36.415Z,100155.55
2018-08-28T03:08:04.026Z,100155.22
2018-08-28T03:10:31.755Z,100157.91
2018-08-28T03:12:59.343Z,100159.39
2018-08-28T03:15:27.459Z,100157.70
2018-08-28T03:17:55.097Z,100156.88
2018-08-28T03:20:22.729Z,100164.43
2018-08-28T03:22:50.656Z,100163.75
2018-08-28T03:25:18.258Z,100157.02
2018-08-28T03:27:45.884Z,100159.86
2018-08-28T03:30:13.503Z,100160.86
2018-08-28T03:32:41.436Z,100151.77
2018-08-28T03:35:09.061Z,100158.16
2018-08-28T03:37:36.651Z,100162.47
2018-08-28T03:40:04.290Z,100163.14
2018-08-28T03:42:33.284Z,100162.28
2018-08-28T03:45:00.888Z,100174.38
2018-08-28T03:47:28.491Z,100172.20
2018-08-28T03:49:56.356Z,100172.69
2018-08-28T03:52:23.958Z,100169.66
2018-08-28T03:54:51.674Z,100176.89
2018-08-28T03:57:20.540Z,100173.34
2018-08-28T03:59:48.927Z,100184.44
2018-08-28T04:12:50.427Z,100189.30
2018-08-28T04:15:18.026Z,100186.59
2018-08-28T04:17:49.483Z,100189.08
2018-08-28T04:20:18.159Z,100182.16
2018-08-28T04:22:45.850Z,100188.67
2018-08-28T04:25:13.470Z,100189.48
2018-08-28T04:27:41.407Z,100191.14
2018-08-28T04:30:09.299Z,100197.85
2018-08-28T04:32:38.120Z,100193.82
2018-08-28T04:35:06.020Z,100201.02
2018-08-28T04:37:33.643Z,100202.54
2018-08-28T04:40:01.649Z,100196.83
2018-08-28T04:42:29.415Z,100197.45
2018-08-28T04:44:57.030Z,100200.45
2018-08-28T04:47:25.209Z,100204.48
2018-08-28T04:49:54.485Z,100203.13
2018-08-28T04:52:22.175Z,100204.96
2018-08-28T04:54:50.087Z,100202.10
2018-08-28T04:57:17.697Z,100211.98
2018-08-28T04:59:45.307Z,100210.84
2018-08-28T05:02:14.095Z,100212.05
2018-08-28T05:04:41.731Z,100213.22
2018-08-28T05:07:09.359Z,100215.97
2018-08-28T05:09:37.257Z,100218.69
2018-08-28T05:12:04.937Z,100221.09
2018-08-28T05:14:32.590Z,100226.50
2018-08-28T05:17:00.703Z,100223.67
2018-08-28T05:19:29.354Z,100223.53
2018-08-28T05:21:56.855Z,100231.14
2018-08-28T05:24:24.762Z,100232.69
2018-08-28T05:26:52.412Z,100235.20
2018-08-28T05:29:20.199Z,100230.55
2018-08-28T05:31:48.131Z,100242.18
2018-08-28T05:34:15.755Z,100236.66
2018-08-28T05:36:43.382Z,100238.06
2018-08-28T05:39:11.266Z,100238.75
2018-08-28T05:41:38.878Z,100236.61
2018-08-28T05:44:06.491Z,100239.35
2018-08-28T05:46:34.588Z,100238.89
2018-08-28T05:49:02.197Z,100243.47
2018-08-28T05:51:29.819Z,100245.70
2018-08-28T05:53:57.722Z,100243.37
2018-08-28T05:56:25.349Z,100243.91
2018-08-28T05:58:52.943Z,100245.50
2018-08-28T06:01:23.833Z,100242.35
2018-08-28T06:03:51.445Z,100243.72
2018-08-28T06:06:19.067Z,100252.72
2018-08-28T06:08:47.022Z,100249.41
2018-08-28T06:11:14.605Z,100246.73
2018-08-28T06:13:43.314Z,100251.83
2018-08-28T06:16:11.190Z,100246.98
2018-08-28T06:18:38.841Z,100254.73
2018-08-28T06:21:06.470Z,100251.08
2018-08-28T06:23:34.346Z,100258.69
2018-08-28T06:26:01.950Z,100263.59
2018-08-28T06:28:29.548Z,100264.32
2018-08-28T06:30:57.506Z,100274.80
2018-08-28T06:33:25.614Z,100271.97
2018-08-28T06:35:53.227Z,100275.39
2018-08-28T06:38:21.116Z,100275.63
2018-08-28T06:40:49.577Z,100281.70
2018-08-28T06:43:17.982Z,100286.78
2018-08-28T06:45:46.708Z,100291.50
2018-08-28T06:48:14.543Z,100290.50
2018-08-28T06:50:42.176Z,100291.17
2018-08-28T06:53:10.160Z,100294.77
2018-08-28T06:55:37.792Z,100295.94
2018-08-28T06:58:05.379Z,100297.63
2018-08-28T07:00:33.277Z,100295.45
2018-08-28T07:03:00.900Z,100286.21
2018-08-28T07:05:28.683Z,100298.04
2018-08-28T07:07:56.582Z,100292.66
2018-08-28T07:10:24.256Z,100296.06
2018-08-28T07:12:52.439Z,100295.77
2018-08-28T07:15:20.432Z,100295.99
2018-08-28T07:17:48.228Z,100295.51
2018-08-28T07:20:15.919Z,100296.95
2018-08-28T07:22:43.827Z,100301.05
2018-08-28T07:25:11.425Z,100305.46
2018-08-28T07:27:40.083Z,100309.19
2018-08-28T07:30:07.972Z,100307.19
2018-08-28T07:32:35.656Z,100306.53
2018-08-28T07:35:03.272Z,100314.80
2018-08-28T07:37:32.774Z,100316.70
2018-08-28T07:40:04.481Z,100321.93
2018-08-28T07:42:34.025Z,100321.27
2018-08-28T07:45:01.945Z,100321.10
2018-08-28T07:47:29.611Z,100320.27
2018-08-28T07:50:01.098Z,100317.27
2018-08-28T07:52:29.033Z,100318.09
2018-08-28T07:54:57.449Z,100313.06
2018-08-28T07:57:25.059Z,100309.17
2018-08-28T07:59:53.855Z,100310.67
2018-08-28T08:02:21.491Z,100315.75
2018-08-28T08:04:50.190Z,100314.22
2018-08-28T08:07:18.507Z,100316.41
2018-08-28T08:09:47.160Z,100317.41
2018-08-28T08:12:15.388Z,100319.77
2018-08-28T08:14:44.570Z,100320.94
2018-08-28T08:17:12.885Z,100316.34
2018-08-28T08:19:41.064Z,100309.06
2018-08-28T08:22:09.010Z,100316.78
2018-08-28T08:24:36.640Z,100317.11
2018-08-28T08:27:04.250Z,100313.22
2018-08-28T08:29:34.255Z,100313.51
2018-08-28T08:32:02.588Z,100309.73
2018-08-28T08:34:31.089Z,100308.01
2018-08-28T08:36:59.930Z,100313.15
2018-08-28T08:39:28.107Z,100316.92
2018-08-28T08:41:55.869Z,100313.45
2018-08-28T08:44:23.547Z,100311.98
2018-08-28T08:46:51.155Z,100305.50
2018-08-28T08:49:21.008Z,100308.64
2018-08-28T08:51:48.673Z,100300.27
2018-08-28T08:54:17.268Z,100303.88
2018-08-28T08:56:45.166Z,100301.11
2018-08-28T08:59:13.434Z,100300.23
2018-08-28T09:01:41.070Z,100301.80
2018-08-28T09:04:09.276Z,100293.33
2018-08-28T09:06:36.923Z,100299.95
2018-08-28T09:09:05.709Z,100297.04
2018-08-28T09:11:33.621Z,100299.26
2018-08-28T09:14:02.260Z,100302.61
2018-08-28T09:16:30.727Z,100297.58
2018-08-28T09:19:01.327Z,100299.58
2018-08-28T09:21:30.651Z,100302.76
2018-08-28T09:23:58.313Z,100298.64
2018-08-28T09:26:27.256Z,100300.02
2018-08-28T09:28:56.318Z,100304.35
2018-08-28T09:31:24.871Z,100297.67
2018-08-28T09:33:53.751Z,100296.03
2018-08-28T09:36:21.644Z,100292.61
2018-08-28T09:38:49.395Z,100294.64
2018-08-28T09:41:17.336Z,100292.84
2018-08-28T09:43:47.821Z,100292.77
2018-08-28T09:46:15.446Z,100295.92
2018-08-28T09:48:45.594Z,100298.71
2018-08-28T09:51:13.620Z,100289.13
2018-08-28T09:53:41.320Z,100288.23
2018-08-28T09:56:11.991Z,100296.56
2018-08-28T09:58:40.485Z,100297.22
2018-08-28T10:01:13.231Z,100295.25
2018-08-28T10:03:41.292Z,100294.75
2018-08-28T10:06:10.411Z,100286.92
2018-08-28T10:08:38.403Z,100289.32
2018-08-28T10:11:10.435Z,100296.36
2018-08-28T10:13:38.095Z,100293.41
2018-08-28T10:16:06.671Z,100281.58
2018-08-28T10:18:34.740Z,100277.85
2018-08-28T10:21:02.569Z,100275.92
2018-08-28T10:23:31.039Z,100278.69
2018-08-28T10:26:00.446Z,100277.87
2018-08-28T10:28:28.117Z,100274.86
2018-08-28T10:30:56.567Z,100278.22
2018-08-28T10:33:25.379Z,100272.41
2018-08-28T10:35:56.191Z,100268.66
2018-08-28T10:38:24.812Z,100263.91
2018-08-28T10:40:52.740Z,100260.03
2018-08-28T10:43:20.521Z,100259.62
2018-08-28T10:45:48.937Z,100257.64
2018-08-28T10:48:23.465Z,100259.42
2018-08-28T10:50:51.438Z,100250.36
2018-08-28T10:53:19.951Z,100255.33
2018-08-28T10:55:49.361Z,100255.56
2018-08-28T10:58:17.819Z,100252.60
2018-08-28T11:00:45.499Z,100254.80
2018-08-28T11:03:14.328Z,100250.66
2018-08-28T11:05:41.999Z,100253.27
2018-08-28T11:08:10.340Z,100247.49
2018-08-28T11:10:40.106Z,100241.42
2018-08-28T11:13:07.738Z,100247.94
2018-08-28T11:15:36.310Z,100245.39
2018-08-28T11:18:04.972Z,100244.58
2018-08-28T11:20:33.214Z,100244.57
2018-08-28T11:23:00.901Z,100247.59
2018-08-28T11:25:28.947Z,100243.33
2018-08-28T11:27:57.136Z,100242.97
2018-08-28T11:30:26.116Z,100245.92
2018-08-28T11:32:57.157Z,100238.78
2018-08-28T11:35:25.725Z,100232.00
2018-08-28T11:37:54.570Z,100236.39
2018-08-28T11:40:22.525Z,100233.72
2018-08-28T11:42:50.275Z,100224.13
2018-08-28T11:45:20.551Z,100228.62
2018-08-28T11:47:48.524Z,100226.53
2018-08-28T11:50:16.305Z,100207.78
2018-08-28T11:52:44.053Z,100220.49
2018-08-28T11:55:17.054Z,100225.28
2018-08-28T11:57:46.373Z,100218.97
2018-08-28T12:00:16.593Z,100221.16
2018-08-28T12:02:44.609Z,100223.27
2018-08-28T12:05:12.417Z,100211.28
2018-08-28T12:07:41.983Z,100215.76
2018-08-28T12:10:11.052Z,100205.91
2018-08-28T12:12:38.809Z,100214.19
2018-08-28T12:15:06.422Z,100215.95
2018-08-28T12:17:34.306Z,100207.74
2018-08-28T12:20:03.246Z,100208.14
2018-08-28T12:22:31.098Z,100204.86
2018-08-28T12:25:00.656Z,100206.55
2018-08-28T12:27:28.271Z,100192.13
2018-08-28T12:29:55.916Z,100194.06
2018-08-28T12:32:24.839Z,100187.70
2018-08-28T12:34:52.507Z,100185.76
2018-08-28T12:37:21.964Z,100184.38
2018-08-28T12:39:50.011Z,100184.68
2018-08-28T12:42:18.819Z,100173.63
2018-08-28T12:44:46.472Z,100169.47
2018-08-28T12:47:17.334Z,100169.45
2018-08-28T12:49:45.854Z,100164.41
2018-08-28T12:52:15.955Z,100161.88
2018-08-28T12:54:44.532Z,100158.27
2018-08-28T12:57:14.384Z,100157.97
2018-08-28T12:59:42.020Z,100163.09
2018-08-28T13:02:10.082Z,100162.83
2018-08-28T13:04:37.711Z,100162.82
2018-08-28T13:07:09.883Z,100161.14
2018-08-28T13:09:41.686Z,100161.97
2018-08-28T13:12:09.761Z,100156.44
2018-08-28T13:14:37.657Z,100151.47
2018-08-28T13:17:07.246Z,100151.41
2018-08-28T13:19:35.012Z,100142.98
2018-08-28T13:22:03.708Z,100138.75
2018-08-28T13:24:31.701Z,100147.78
2018-08-28T13:27:00.926Z,100142.41
2018-08-28T13:29:28.624Z,100143.44
2018-08-28T13:31:56.617Z,100135.59
2018-08-28T13:34:25.057Z,100139.20
2018-08-28T13:36:52.833Z,100137.14
2018-08-28T13:39:21.047Z,100138.69
2018-08-28T13:41:49.561Z,100129.69
2018-08-28T13:44:17.195Z,100132.02
2018-08-28T13:46:48.861Z,100124.83
2018-08-28T13:49:19.902Z,100118.45
2018-08-28T13:51:47.668Z,100113.77
2018-08-28T13:54:20.444Z,100111.80
2018-08-28T13:56:49.979Z,100109.86
2018-08-28T13:59:18.584Z,100106.70
2018-08-28T14:01:46.550Z,100104.24
2018-08-28T14:04:14.523Z,100096.39
2018-08-28T14:06:45.243Z,100096.80
2018-08-28T14:09:14.352Z,100101.61
2018-08-28T14:11:42.108Z,100100.88
2018-08-28T14:14:10.671Z,100103.05
2018-08-28T14:16:39.228Z,100099.88
2018-08-28T14:19:07.891Z,100096.52
2018-08-28T14:21:35.535Z,100096.01
2018-08-28T14:24:03.529Z,100090.33
2018-08-28T14:26:31.983Z,100091.17
2018-08-28T14:28:59.603Z,100097.22
2018-08-28T14:31:28.475Z,100090.92
2018-08-28T14:33:56.702Z,100097.21
2018-08-28T14:36:24.400Z,100090.64
2018-08-28T14:38:53.177Z,100089.44
2018-08-28T14:41:21.747Z,100085.02
2018-08-28T14:43:50.212Z,100080.79
2018-08-28T14:46:18.180Z,100076.61
2018-08-28T14:48:45.829Z,100084.80
2018-08-28T14:51:14.247Z,100079.66
2018-08-28T14:53:42.202Z,100073.92
2018-08-28T14:56:09.886Z,100073.92
2018-08-28T14:58:38.814Z,100068.13
2018-08-28T15:01:07.713Z,100060.78
2018-08-28T15:03:35.575Z,100064.17
2018-08-28T15:06:04.624Z,100067.24
2018-08-28T15:08:33.056Z,100059.03
2018-08-28T15:11:00.671Z,100059.91
2018-08-28T15:13:28.646Z,100053.00
2018-08-28T15:15:56.963Z,100053.81
2018-08-28T15:18:24.685Z,100059.08
2018-08-28T15:23:56.910Z,100050.70
2018-08-28T15:26:24.790Z,100054.48
2018-08-28T15:28:52.626Z,100052.20
2018-08-28T15:31:20.281Z,100041.99
2018-08-28T15:33:48.878Z,100041.03
2018-08-28T15:36:16.504Z,100046.73
2018-08-28T15:38:45.290Z,100044.93
2018-08-28T15:41:14.210Z,100049.63
2018-08-28T15:43:41.882Z,100046.89
2018-08-28T15:46:12.306Z,100045.35
2018-08-28T15:48:40.206Z,100049.44
2018-08-28T15:51:09.524Z,100044.05
2018-08-28T15:53:39.240Z,100044.39
2018-08-28T15:56:08.191Z,100043.59
2018-08-28T15:58:37.019Z,100037.61
2018-08-28T16:01:04.820Z,100034.82
2018-08-28T16:03:33.413Z,100031.94
2018-08-28T16:06:01.016Z,100029.20
2018-08-28T16:08:29.490Z,100033.87
2018-08-28T16:10:58.380Z,100036.36
2018-08-28T16:13:26.141Z,100037.05
2018-08-28T16:15:53.755Z,100031.89
2018-08-28T16:18:22.536Z,100040.81
2018-08-28T16:20:50.150Z,100046.89
2018-08-28T16:23:22.851Z,100044.36
2018-08-28T16:25:52.483Z,100041.60
2018-08-28T16:28:21.590Z,100041.58
2018-08-28T16:30:50.193Z,100043.68
2018-08-28T16:33:18.216Z,100036.61
2018-08-28T16:35:47.284Z,100040.13
2018-08-28T16:38:14.887Z,100042.41
2018-08-28T16:40:43.639Z,100050.02
2018-08-28T16:43:12.890Z,100044.43
2018-08-28T16:45:41.528Z,100037.28
2018-08-28T16:48:11.355Z,100037.66
2018-08-28T16:50:38.969Z,100033.70
2018-08-28T16:53:06.627Z,100030.03
2018-08-28T16:55:34.569Z,100029.02
2018-08-28T16:58:02.263Z,100019.48
2018-08-28T17:00:30.488Z,100016.05
2018-08-28T17:02:59.304Z,100018.98
2018-08-28T17:05:27.967Z,100012.75
2018-08-28T17:07:56.350Z,100013.50
2018-08-28T17:10:26.378Z,100008.97
2018-08-28T17:12:58.327Z,100011.77
2018-08-28T17:15:28.869Z,100016.28
2018-08-28T17:17:59.059Z,100013.41
2018-08-28T17:20:27.488Z,100014.66
2018-08-28T17:22:55.319Z,100004.97
2018-08-28T17:25:29.218Z,100005.98
2018-08-28T17:27:57.223Z,100009.93
2018-08-28T17:30:26.511Z,100010.11
2018-08-28T17:32:54.870Z,100010.60
2018-08-28T17:35:23.250Z,100008.59
2018-08-28T17:37:51.559Z,99999.77
2018-08-28T17:40:19.671Z,99998.89
2018-08-28T17:42:48.420Z,100000.42
2018-08-28T17:45:16.125Z,100005.98
2018-08-28T17:47:44.166Z,99997.14
2018-08-28T17:50:12.808Z,100000.02
2018-08-28T17:52:46.547Z,100005.30
2018-08-28T17:55:17.653Z,100003.24
2018-08-28T17:57:45.320Z,100000.58
2018-08-28T18:00:12.952Z,100002.09
2018-08-28T18:02:40.952Z,99997.62
2018-08-28T18:05:08.600Z,100000.13
2018-08-28T18:07:36.977Z,100002.67
2018-08-28T18:10:05.963Z,100011.77
2018-08-28T18:12:33.621Z,100014.43
2018-08-28T18:15:01.282Z,100007.11
2018-08-28T18:17:29.290Z,100009.95
2018-08-28T18:19:58.351Z,100005.83
2018-08-28T18:22:27.630Z,100008.48
2018-08-28T18:24:56.347Z,100004.53
2018-08-28T18:27:25.471Z,100010.18
2018-08-28T18:29:54.412Z,100019.25
2018-08-28T18:32:28.659Z,100013.41
2018-08-28T18:34:57.847Z,100017.41
2018-08-28T18:37:28.460Z,100017.66
2018-08-28T18:39:56.430Z,100022.66
2018-08-28T18:42:24.826Z,100022.26
2018-08-28T18:44:52.719Z,100026.09
2018-08-28T18:47:20.789Z,100022.14
2018-08-28T18:49:48.567Z,100025.12
2018-08-28T18:52:17.846Z,100022.67
2018-08-28T18:54:48.279Z,100021.23
2018-08-28T18:57:17.576Z,100017.31
2018-08-28T18:59:48.582Z,100021.31
2018-08-28T19:02:16.586Z,100018.53
2018-08-28T19:04:46.367Z,100023.02
2018-08-28T19:07:15.481Z,100020.05
2018-08-28T19:09:44.054Z,100018.45
2018-08-28T19:12:14.655Z,100018.51
2018-08-28T19:14:42.886Z,100011.81
2018-08-28T19:17:11.526Z,100014.34
2018-08-28T19:19:41.267Z,100013.91
2018-08-28T19:22:12.195Z,100012.94
2018-08-28T19:24:42.712Z,100010.62
2018-08-28T19:27:13.550Z,100005.09
2018-08-28T19:29:43.226Z,100008.66
2018-08-28T19:32:11.212Z,100000.41
2018-08-28T19:34:39.674Z,99994.52
2018-08-28T19:37:08.605Z,100000.98
2018-08-28T19:39:37.527Z,99999.81
2018-08-28T19:42:05.170Z,99996.66
2018-08-28T19:44:34.501Z,99992.98
2018-08-28T19:47:06.267Z,99984.75
2018-08-28T19:49:33.975Z,99977.84
2018-08-28T19:52:01.609Z,99985.94
2018-08-28T19:54:30.555Z,99984.63
2018-08-28T19:56:59.853Z,99984.17
2018-08-28T19:59:27.658Z,99982.52
2018-08-28T20:01:55.602Z,99979.68
2018-08-28T20:04:24.206Z,99980.53
2018-08-28T20:06:52.567Z,99976.86
2018-08-28T20:09:22.396Z,99975.33
2018-08-28T20:11:50.101Z,99978.91
2018-08-28T20:14:19.590Z,99980.07
2018-08-28T20:16:47.565Z,99982.41
2018-08-28T20:19:17.011Z,99979.90
2018-08-28T20:21:45.361Z,99983.10
2018-08-28T20:24:13.523Z,99979.40
2018-08-28T20:26:41.221Z,99979.58
2018-08-28T20:29:09.813Z,99982.08
2018-08-28T20:31:40.650Z,99977.39
2018-08-28T20:34:08.614Z,99982.76
2018-08-28T20:36:37.212Z,99976.03
2018-08-28T20:39:06.569Z,99977.52
2018-08-28T20:41:35.814Z,99976.34
2018-08-28T20:44:03.508Z,99976.67
2018-08-28T20:46:33.019Z,99977.50
2018-08-28T20:49:02.797Z,99969.75
2018-08-28T20:51:36.677Z,99970.40
2018-08-28T20:54:04.674Z,99966.52
2018-08-28T20:56:34.120Z,99965.83
2018-08-28T20:59:03.464Z,99963.80
2018-08-28T21:01:31.666Z,99954.84
2018-08-28T21:03:59.926Z,99958.36
2018-08-28T21:06:27.832Z,99960.66
2018-08-28T21:08:55.767Z,99957.94
2018-08-28T21:11:23.495Z,99948.31
2018-08-28T21:13:53.662Z,99947.27
2018-08-28T21:16:24.106Z,99942.16
2018-08-28T21:18:51.749Z,99937.74
2018-08-28T21:21:20.354Z,99944.12
2018-08-28T21:23:48.900Z,99928.81
2018-08-28T21:26:16.561Z,99926.42
2018-08-28T21:28:45.120Z,99924.07
2018-08-28T21:31:13.419Z,99919.84
2018-08-28T21:33:41.923Z,99914.44
2018-08-28T21:36:11.685Z,99922.31
2018-08-28T21:38:42.949Z,99919.44
2018-08-28T21:41:10.639Z,99919.58
2018-08-28T21:43:39.806Z,99922.08
2018-08-28T21:46:08.531Z,99922.56
2018-08-28T21:48:36.167Z,99918.52
2018-08-28T21:51:04.659Z,99917.28
2018-08-28T21:53:34.112Z,99917.76
2018-08-28T21:56:01.785Z,99913.20
2018-08-28T21:58:30.528Z,99918.56
2018-08-28T22:01:04.678Z,99911.98
2018-08-28T22:03:33.173Z,99909.25
2018-08-28T22:06:02.349Z,99908.86
2018-08-28T22:08:32.751Z,99907.99
2018-08-28T22:11:00.622Z,99912.49
2018-08-28T22:13:29.306Z,99904.23
2018-08-28T22:15:57.573Z,99907.38
2018-08-28T22:18:25.191Z,99907.14
2018-08-28T22:20:57.297Z,99905.92
2018-08-28T22:23:26.906Z,99901.87
2018-08-28T22:25:54.524Z,99901.48
2018-08-28T22:28:22.151Z,99900.47
2018-08-28T22:30:50.082Z,99903.44
2018-08-28T22:33:17.830Z,99901.07
2018-08-28T22:35:46.077Z,99900.53
2018-08-28T22:38:13.760Z,99897.65
2018-08-28T22:40:42.190Z,99895.63
2018-08-28T22:43:10.770Z,99896.88
2018-08-28T22:45:38.393Z,99906.41
2018-08-28T22:48:07.224Z,99906.25
2018-08-28T22:50:36.066Z,99905.88
2018-08-28T22:53:05.160Z,99909.22
2018-08-28T22:55:32.884Z,99907.67
2018-08-28T22:58:00.540Z,99906.17
2018-08-28T23:00:28.446Z,99906.66
2018-08-28T23:02:56.589Z,99907.99
2018-08-28T23:05:24.240Z,99898.92
2018-08-28T23:07:52.435Z,99900.06
2018-08-28T23:10:20.461Z,99892.95
2018-08-28T23:12:48.127Z,99891.59
2018-08-28T23:15:15.721Z,99884.48
2018-08-28T23:17:43.660Z,99876.72
2018-08-28T23:20:15.247Z,99873.67
2018-08-28T23:22:43.747Z,99873.27
2018-08-28T23:25:11.400Z,99871.72
2018-08-28T23:27:39.705Z,99871.49
2018-08-28T23:30:07.385Z,99875.97
2018-08-28T23:32:35.371Z,99871.71
2018-08-28T23:35:03.174Z,99869.96
2018-08-28T23:37:30.836Z,99874.91
2018-08-28T23:39:58.496Z,99872.55
2018-08-28T23:42:26.636Z,99864.95
2018-08-28T23:44:56.489Z,99866.57
2018-08-28T23:47:24.969Z,99862.34
2018-08-28T23:49:52.886Z,99862.66
2018-08-28T23:52:21.094Z,99857.44
2018-08-28T23:54:48.679Z,99861.63
2018-08-28T23:57:16.254Z,99861.11
2018-08-28T23:59:44.251Z,99860.77
